Eglin, Florida
Current Conditions -  °F | °C
As of 1:55 PM on Thursday 29 Jan 2015 (Local Time) from KVPS Reporting Station
Broken Clouds Broken Clouds  
Wind Chill: 71°   Ceiling: 3400
Heat Index: 71°   Visibility: 10mi
Dew Point: 52°   Wind: 8mph
Humidity: 51%   Direction: 190°S
Pressure: 30.25"   Gusts: NA
Location:  30.5697°N, 86.6042°W
Report Text: KVPS 291955Z 19007KT 10SM BKN034 BKN250 22/11 A3025 RMK AO2A SLP250 STN PRESS / ALSTG ESTMD T02180111 $
Loading
Personal Weather Stations






























Interactive Weather Map New forecast layout! Learn more

10-Day Weather Forecast

Advertisements
Track Severe Weather on mobile